sensor_id;sensor_type;location;lat;lon;timestamp;temperature;humidity
1888;DHT22;944;51.574;6.980;2022-12-07T00:00:16;4.50;99.90
1888;DHT22;944;51.574;6.980;2022-12-07T00:02:46;4.40;99.90
1888;DHT22;944;51.574;6.980;2022-12-07T00:05:13;4.40;99.90
1888;DHT22;944;51.574;6.980;2022-12-07T00:07:42;4.40;99.90
1888;DHT22;944;51.574;6.980;2022-12-07T00:10:09;4.40;99.90
1888;DHT22;944;51.574;6.980;2022-12-07T00:12:40;4.40;99.90
1888;DHT22;944;51.574;6.980;2022-12-07T00:15:10;4.50;99.90
1888;DHT22;944;51.574;6.980;2022-12-07T00:17:40;4.50;99.90
1888;DHT22;944;51.574;6.980;2022-12-07T00:20:08;4.50;99.90
1888;DHT22;944;51.574;6.980;2022-12-07T00:22:36;4.60;99.90
1888;DHT22;944;51.574;6.980;2022-12-07T00:25:05;4.60;99.90
1888;DHT22;944;51.574;6.980;2022-12-07T00:27:33;4.60;99.90
1888;DHT22;944;51.574;6.980;2022-12-07T00:30:01;4.60;99.90
1888;DHT22;944;51.574;6.980;2022-12-07T00:32:29;4.70;99.90
1888;DHT22;944;51.574;6.980;2022-12-07T00:34:59;4.70;99.90
1888;DHT22;944;51.574;6.980;2022-12-07T00:37:37;4.70;99.90
1888;DHT22;944;51.574;6.980;2022-12-07T00:40:05;4.60;99.90
1888;DHT22;944;51.574;6.980;2022-12-07T00:42:37;4.70;99.90
1888;DHT22;944;51.574;6.980;2022-12-07T00:45:09;4.70;99.90
1888;DHT22;944;51.574;6.980;2022-12-07T00:47:43;4.70;99.90
1888;DHT22;944;51.574;6.980;2022-12-07T00:50:11;4.70;99.90
1888;DHT22;944;51.574;6.980;2022-12-07T00:52:40;4.80;99.90
1888;DHT22;944;51.574;6.980;2022-12-07T00:55:09;4.60;99.90
1888;DHT22;944;51.574;6.980;2022-12-07T00:57:36;5.00;99.90
1888;DHT22;944;51.574;6.980;2022-12-07T01:00:04;4.80;99.90
1888;DHT22;944;51.574;6.980;2022-12-07T01:06:27;4.80;99.90
1888;DHT22;944;51.574;6.980;2022-12-07T01:09:02;4.80;99.90
1888;DHT22;944;51.574;6.980;2022-12-07T01:11:34;4.80;99.90
1888;DHT22;944;51.574;6.980;2022-12-07T01:14:09;4.90;99.90
1888;DHT22;944;51.574;6.980;2022-12-07T01:16:55;4.80;99.90
1888;DHT22;944;51.574;6.980;2022-12-07T01:19:35;4.80;99.90
1888;DHT22;944;51.574;6.980;2022-12-07T01:22:04;4.70;99.90
1888;DHT22;944;51.574;6.980;2022-12-07T01:24:38;4.60;99.90
1888;DHT22;944;51.574;6.980;2022-12-07T01:27:19;4.60;99.90
1888;DHT22;944;51.574;6.980;2022-12-07T01:30:03;4.60;99.90
1888;DHT22;944;51.574;6.980;2022-12-07T01:32:42;4.60;99.90
1888;DHT22;944;51.574;6.980;2022-12-07T01:35:12;4.70;99.90
1888;DHT22;944;51.574;6.980;2022-12-07T01:37:45;4.60;99.90
1888;DHT22;944;51.574;6.980;2022-12-07T01:40:14;4.60;99.90
1888;DHT22;944;51.574;6.980;2022-12-07T01:42:41;4.60;99.90
1888;DHT22;944;51.574;6.980;2022-12-07T01:45:38;4.60;99.90
1888;DHT22;944;51.574;6.980;2022-12-07T01:48:12;4.60;99.90
1888;DHT22;944;51.574;6.980;2022-12-07T01:50:48;4.60;99.90
1888;DHT22;944;51.574;6.980;2022-12-07T01:53:27;4.50;99.90
1888;DHT22;944;51.574;6.980;2022-12-07T01:55:58;4.50;99.90
1888;DHT22;944;51.574;6.980;2022-12-07T01:58:26;4.50;99.90
1888;DHT22;944;51.574;6.980;2022-12-07T02:00:58;4.50;99.90
1888;DHT22;944;51.574;6.980;2022-12-07T02:03:34;4.30;99.90
1888;DHT22;944;51.574;6.980;2022-12-07T02:06:04;4.60;99.90
1888;DHT22;944;51.574;6.980;2022-12-07T02:08:38;4.60;99.90
1888;DHT22;944;51.574;6.980;2022-12-07T02:11:06;4.60;99.90
1888;DHT22;944;51.574;6.980;2022-12-07T02:13:39;4.60;99.90
1888;DHT22;944;51.574;6.980;2022-12-07T02:16:20;4.60;99.90
1888;DHT22;944;51.574;6.980;2022-12-07T02:19:02;4.30;99.90
1888;DHT22;944;51.574;6.980;2022-12-07T02:21:54;4.40;99.90
1888;DHT22;944;51.574;6.980;2022-12-07T02:24:52;4.30;99.90
1888;DHT22;944;51.574;6.980;2022-12-07T02:27:42;4.20;99.90
1888;DHT22;944;51.574;6.980;2022-12-07T02:30:17;4.10;99.90
1888;DHT22;944;51.574;6.980;2022-12-07T02:32:54;4.10;99.90
1888;DHT22;944;51.574;6.980;2022-12-07T02:35:30;4.10;99.90
1888;DHT22;944;51.574;6.980;2022-12-07T02:38:04;4.00;99.90
1888;DHT22;944;51.574;6.980;2022-12-07T02:40:41;4.10;99.90
1888;DHT22;944;51.574;6.980;2022-12-07T02:43:13;3.90;99.90
1888;DHT22;944;51.574;6.980;2022-12-07T02:45:55;3.80;99.90
1888;DHT22;944;51.574;6.980;2022-12-07T02:48:31;3.80;99.90
1888;DHT22;944;51.574;6.980;2022-12-07T02:51:00;3.70;99.90
1888;DHT22;944;51.574;6.980;2022-12-07T02:53:35;3.70;99.90
1888;DHT22;944;51.574;6.980;2022-12-07T02:56:16;3.70;99.90
1888;DHT22;944;51.574;6.980;2022-12-07T02:58:58;3.60;99.90
1888;DHT22;944;51.574;6.980;2022-12-07T03:01:39;3.60;99.90
1888;DHT22;944;51.574;6.980;2022-12-07T03:04:23;3.60;99.90
1888;DHT22;944;51.574;6.980;2022-12-07T03:07:01;3.50;99.90
1888;DHT22;944;51.574;6.980;2022-12-07T03:09:37;3.50;99.90
1888;DHT22;944;51.574;6.980;2022-12-07T03:12:20;3.60;99.90
1888;DHT22;944;51.574;6.980;2022-12-07T03:14:53;3.40;99.90
1888;DHT22;944;51.574;6.980;2022-12-07T03:17:27;3.30;99.90
1888;DHT22;944;51.574;6.980;2022-12-07T03:20:15;3.40;99.90
1888;DHT22;944;51.574;6.980;2022-12-07T03:22:47;3.30;99.90
1888;DHT22;944;51.574;6.980;2022-12-07T03:25:24;3.30;99.90
1888;DHT22;944;51.574;6.980;2022-12-07T03:27:58;3.30;99.90
1888;DHT22;944;51.574;6.980;2022-12-07T03:30:36;3.20;99.90
1888;DHT22;944;51.574;6.980;2022-12-07T03:33:15;3.20;99.90
1888;DHT22;944;51.574;6.980;2022-12-07T03:36:05;3.20;99.90
1888;DHT22;944;51.574;6.980;2022-12-07T03:38:39;3.20;99.90
1888;DHT22;944;51.574;6.980;2022-12-07T03:41:16;3.20;99.90
1888;DHT22;944;51.574;6.980;2022-12-07T03:43:49;3.20;99.90
1888;DHT22;944;51.574;6.980;2022-12-07T03:46:20;3.20;99.90
1888;DHT22;944;51.574;6.980;2022-12-07T03:49:00;3.10;99.90
1888;DHT22;944;51.574;6.980;2022-12-07T03:51:39;3.10;99.90
1888;DHT22;944;51.574;6.980;2022-12-07T03:54:15;3.10;99.90
1888;DHT22;944;51.574;6.980;2022-12-07T03:56:49;3.00;99.90
1888;DHT22;944;51.574;6.980;2022-12-07T03:59:23;3.20;99.90
1888;DHT22;944;51.574;6.980;2022-12-07T04:01:53;3.10;99.90
1888;DHT22;944;51.574;6.980;2022-12-07T04:04:33;3.10;99.90
1888;DHT22;944;51.574;6.980;2022-12-07T04:07:06;3.10;99.90
1888;DHT22;944;51.574;6.980;2022-12-07T04:09:47;3.20;99.90
1888;DHT22;944;51.574;6.980;2022-12-07T04:12:25;3.20;99.90
1888;DHT22;944;51.574;6.980;2022-12-07T04:14:55;3.20;99.90
1888;DHT22;944;51.574;6.980;2022-12-07T04:17:22;3.20;99.90
1888;DHT22;944;51.574;6.980;2022-12-07T04:19:53;3.10;99.90
1888;DHT22;944;51.574;6.980;2022-12-07T04:22:20;3.10;99.90
1888;DHT22;944;51.574;6.980;2022-12-07T04:24:48;3.10;99.90
1888;DHT22;944;51.574;6.980;2022-12-07T04:27:15;3.10;99.90
1888;DHT22;944;51.574;6.980;2022-12-07T04:29:46;3.20;99.90
1888;DHT22;944;51.574;6.980;2022-12-07T04:32:15;3.00;99.90
1888;DHT22;944;51.574;6.980;2022-12-07T04:34:44;3.00;99.90
1888;DHT22;944;51.574;6.980;2022-12-07T04:37:13;3.00;99.90
1888;DHT22;944;51.574;6.980;2022-12-07T04:39:41;3.00;99.90
1888;DHT22;944;51.574;6.980;2022-12-07T04:42:13;3.10;99.90
1888;DHT22;944;51.574;6.980;2022-12-07T04:44:43;3.10;99.90
1888;DHT22;944;51.574;6.980;2022-12-07T04:47:10;3.10;99.90
1888;DHT22;944;51.574;6.980;2022-12-07T04:49:45;3.10;99.90
1888;DHT22;944;51.574;6.980;2022-12-07T04:52:15;3.30;99.90
1888;DHT22;944;51.574;6.980;2022-12-07T04:54:46;3.20;99.90
1888;DHT22;944;51.574;6.980;2022-12-07T04:57:16;3.20;99.90
1888;DHT22;944;51.574;6.980;2022-12-07T04:59:45;3.20;99.90
1888;DHT22;944;51.574;6.980;2022-12-07T05:02:14;3.30;99.90
1888;DHT22;944;51.574;6.980;2022-12-07T05:04:43;3.30;99.90
1888;DHT22;944;51.574;6.980;2022-12-07T05:07:10;3.30;99.90
1888;DHT22;944;51.574;6.980;2022-12-07T05:09:45;3.30;99.90
1888;DHT22;944;51.574;6.980;2022-12-07T05:12:14;3.20;99.90
1888;DHT22;944;51.574;6.980;2022-12-07T05:14:43;3.20;99.90
1888;DHT22;944;51.574;6.980;2022-12-07T05:17:13;3.20;99.90
1888;DHT22;944;51.574;6.980;2022-12-07T05:19:42;3.20;99.90
1888;DHT22;944;51.574;6.980;2022-12-07T05:22:10;3.20;99.90
1888;DHT22;944;51.574;6.980;2022-12-07T05:24:44;3.30;99.90
1888;DHT22;944;51.574;6.980;2022-12-07T05:27:14;3.20;99.90
1888;DHT22;944;51.574;6.980;2022-12-07T05:29:51;3.20;99.90
1888;DHT22;944;51.574;6.980;2022-12-07T05:32:26;3.30;99.90
1888;DHT22;944;51.574;6.980;2022-12-07T05:35:03;3.50;99.90
1888;DHT22;944;51.574;6.980;2022-12-07T05:38:09;3.30;99.90
1888;DHT22;944;51.574;6.980;2022-12-07T06:59:30;3.00;99.90
1888;DHT22;944;51.574;6.980;2022-12-07T07:02:48;2.90;99.90
1888;DHT22;944;51.574;6.980;2022-12-07T07:06:05;2.90;99.90
1888;DHT22;944;51.574;6.980;2022-12-07T07:12:58;2.80;99.90
1888;DHT22;944;51.574;6.980;2022-12-07T07:23:02;2.90;99.90
1888;DHT22;944;51.574;6.980;2022-12-07T07:26:10;2.90;99.90
1888;DHT22;944;51.574;6.980;2022-12-07T07:28:58;2.90;99.90
1888;DHT22;944;51.574;6.980;2022-12-07T07:31:59;3.00;99.90
1888;DHT22;944;51.574;6.980;2022-12-07T07:35:34;3.10;99.90
1888;DHT22;944;51.574;6.980;2022-12-07T07:53:02;3.20;99.90
1888;DHT22;944;51.574;6.980;2022-12-07T07:55:51;3.10;99.90
1888;DHT22;944;51.574;6.980;2022-12-07T07:58:38;3.20;99.90
1888;DHT22;944;51.574;6.980;2022-12-07T08:01:32;3.30;99.90
1888;DHT22;944;51.574;6.980;2022-12-07T08:08:34;3.40;99.90
1888;DHT22;944;51.574;6.980;2022-12-07T09:50:06;4.50;99.90
1888;DHT22;944;51.574;6.980;2022-12-07T09:52:40;4.50;99.90
1888;DHT22;944;51.574;6.980;2022-12-07T09:55:12;4.40;99.90
1888;DHT22;944;51.574;6.980;2022-12-07T09:57:41;4.40;99.90
1888;DHT22;944;51.574;6.980;2022-12-07T10:00:14;4.40;99.90
1888;DHT22;944;51.574;6.980;2022-12-07T10:02:55;4.30;99.90
1888;DHT22;944;51.574;6.980;2022-12-07T10:05:29;4.30;99.90
1888;DHT22;944;51.574;6.980;2022-12-07T10:07:57;4.50;99.90
1888;DHT22;944;51.574;6.980;2022-12-07T10:10:26;4.30;99.90
1888;DHT22;944;51.574;6.980;2022-12-07T10:12:59;4.40;99.90
1888;DHT22;944;51.574;6.980;2022-12-07T10:15:45;4.50;99.90
1888;DHT22;944;51.574;6.980;2022-12-07T10:22:10;4.70;99.90
1888;DHT22;944;51.574;6.980;2022-12-07T10:24:41;4.80;99.90
1888;DHT22;944;51.574;6.980;2022-12-07T10:27:18;4.90;99.90
1888;DHT22;944;51.574;6.980;2022-12-07T10:29:50;5.00;99.90
1888;DHT22;944;51.574;6.980;2022-12-07T10:32:31;5.10;99.90
1888;DHT22;944;51.574;6.980;2022-12-07T10:38:44;5.10;99.90
1888;DHT22;944;51.574;6.980;2022-12-07T10:41:13;5.20;99.90
1888;DHT22;944;51.574;6.980;2022-12-07T10:43:47;5.30;99.90
1888;DHT22;944;51.574;6.980;2022-12-07T10:46:44;5.30;99.90
1888;DHT22;944;51.574;6.980;2022-12-07T10:49:41;5.40;99.90
1888;DHT22;944;51.574;6.980;2022-12-07T10:52:41;5.50;99.90
1888;DHT22;944;51.574;6.980;2022-12-07T10:55:20;5.60;99.90
1888;DHT22;944;51.574;6.980;2022-12-07T10:58:12;5.70;99.90
1888;DHT22;944;51.574;6.980;2022-12-07T11:01:32;5.60;99.90
1888;DHT22;944;51.574;6.980;2022-12-07T11:04:38;5.60;99.90
1888;DHT22;944;51.574;6.980;2022-12-07T11:07:17;5.40;99.90
1888;DHT22;944;51.574;6.980;2022-12-07T11:10:28;5.40;99.90
1888;DHT22;944;51.574;6.980;2022-12-07T11:13:22;5.60;99.90
1888;DHT22;944;51.574;6.980;2022-12-07T11:16:19;5.50;99.90
1888;DHT22;944;51.574;6.980;2022-12-07T11:18:58;5.60;99.90
1888;DHT22;944;51.574;6.980;2022-12-07T11:21:33;5.60;99.90
1888;DHT22;944;51.574;6.980;2022-12-07T11:24:10;5.60;99.90
1888;DHT22;944;51.574;6.980;2022-12-07T11:26:50;5.60;99.90
1888;DHT22;944;51.574;6.980;2022-12-07T11:33:09;5.80;99.90
1888;DHT22;944;51.574;6.980;2022-12-07T11:35:49;5.80;99.90
1888;DHT22;944;51.574;6.980;2022-12-07T11:38:26;5.70;99.90
1888;DHT22;944;51.574;6.980;2022-12-07T11:41:02;5.80;99.90
1888;DHT22;944;51.574;6.980;2022-12-07T11:43:55;5.70;99.90
1888;DHT22;944;51.574;6.980;2022-12-07T11:46:27;5.70;99.90
1888;DHT22;944;51.574;6.980;2022-12-07T11:49:01;5.80;99.90
1888;DHT22;944;51.574;6.980;2022-12-07T11:51:34;5.80;99.90
1888;DHT22;944;51.574;6.980;2022-12-07T11:54:09;5.80;99.90
1888;DHT22;944;51.574;6.980;2022-12-07T11:56:39;5.70;99.90
1888;DHT22;944;51.574;6.980;2022-12-07T11:59:39;5.70;99.90
1888;DHT22;944;51.574;6.980;2022-12-07T12:02:18;5.60;99.90
1888;DHT22;944;51.574;6.980;2022-12-07T12:04:54;5.60;99.90
1888;DHT22;944;51.574;6.980;2022-12-07T12:07:24;5.60;99.90
1888;DHT22;944;51.574;6.980;2022-12-07T12:09:55;5.60;99.90
1888;DHT22;944;51.574;6.980;2022-12-07T12:12:45;5.60;99.90
1888;DHT22;944;51.574;6.980;2022-12-07T12:15:51;5.60;99.90
1888;DHT22;944;51.574;6.980;2022-12-07T12:25:30;5.70;99.90
1888;DHT22;944;51.574;6.980;2022-12-07T12:28:06;5.70;99.90
1888;DHT22;944;51.574;6.980;2022-12-07T14:29:37;4.70;99.90
1888;DHT22;944;51.574;6.980;2022-12-07T14:32:34;4.70;99.90
1888;DHT22;944;51.574;6.980;2022-12-07T14:35:54;4.60;99.90
1888;DHT22;944;51.574;6.980;2022-12-07T14:39:01;4.70;99.90
1888;DHT22;944;51.574;6.980;2022-12-07T14:42:04;4.60;99.90
1888;DHT22;944;51.574;6.980;2022-12-07T14:45:10;4.60;99.90
1888;DHT22;944;51.574;6.980;2022-12-07T14:51:26;4.40;99.90
1888;DHT22;944;51.574;6.980;2022-12-07T14:53:59;4.40;99.90
1888;DHT22;944;51.574;6.980;2022-12-07T14:56:30;4.50;99.90
1888;DHT22;944;51.574;6.980;2022-12-07T14:59:15;4.30;99.90
1888;DHT22;944;51.574;6.980;2022-12-07T15:05:18;4.50;99.90
1888;DHT22;944;51.574;6.980;2022-12-07T15:08:00;4.30;99.90
1888;DHT22;944;51.574;6.980;2022-12-07T15:18:39;4.20;99.90
1888;DHT22;944;51.574;6.980;2022-12-07T15:21:18;4.20;99.90
1888;DHT22;944;51.574;6.980;2022-12-07T15:39:10;4.30;99.90
1888;DHT22;944;51.574;6.980;2022-12-07T16:36:16;4.50;99.90
1888;DHT22;944;51.574;6.980;2022-12-07T16:39:26;4.60;99.90
1888;DHT22;944;51.574;6.980;2022-12-07T16:42:15;4.70;99.90
1888;DHT22;944;51.574;6.980;2022-12-07T16:48:46;4.70;99.90
1888;DHT22;944;51.574;6.980;2022-12-07T16:51:38;4.70;99.90
1888;DHT22;944;51.574;6.980;2022-12-07T16:58:27;4.80;99.90
1888;DHT22;944;51.574;6.980;2022-12-07T17:13:11;4.20;99.90
